ADDS METAR Data INFO
IDs: Format: Raw Decoded Include TAF

Data at: 0458 UTC 25 May 2018

KOSA 250435Z AUTO 14003KT 10SM CLR 23/21 A3003 RMK AO1 T02280210
KOSA 250415Z AUTO 12003KT 10SM CLR 23/21 A3004 RMK AO1 T02310211
KOSA 250355Z AUTO 12003KT 10SM CLR 24/21 A3005 RMK AO1 T02400212
KOSA 250335Z AUTO 00000KT 10SM CLR 24/22 A3004 RMK AO1 T02430215
KOSA 250315Z AUTO 00000KT 10SM CLR 24/21 A3004 RMK AO1 T02440212
KOSA 250255Z AUTO 00000KT 10SM CLR 24/22 A3003 RMK AO1 T02410217
KOSA 250235Z AUTO 00000KT 10SM SCT060 26/22 A3002 RMK AO1 T02550215
KOSA 250215Z AUTO 00000KT 10SM CLR 26/21 A3002 RMK AO1 T02600210
KOSA 250155Z AUTO 00000KT 10SM CLR 27/21 A3002 RMK AO1 T02650210
KOSA 250135Z AUTO 10003KT 10SM CLR 27/21 A3001 RMK AO1 T02700209
KOSA 250115Z AUTO 00000KT 10SM CLR 27/21 A3002 RMK AO1 T02730211
KOSA 250055Z AUTO 12003KT 10SM CLR 28/21 A3001 RMK AO1 T02760211
KOSA 250035Z AUTO 13004KT 10SM CLR 28/21 A3001 RMK AO1 T02830211
KOSA 250015Z AUTO 13004KT 10SM CLR 29/21 A3000 RMK AO1 T02890209
KOSA 242355Z AUTO 14004KT 10SM CLR 31/20 A3000 RMK AO1 T03050202 10322 20299
KOSA 242335Z AUTO 12003KT 10SM CLR 31/19 A3000 RMK AO1 T03100193
KOSA 242315Z AUTO 13005KT 10SM CLR 31/19 A3000 RMK AO1 T03110192
KOSA 242255Z AUTO 12004KT 10SM CLR 31/20 A3000 RMK AO1 T03140195
KOSA 242235Z AUTO 13006KT 10SM CLR 32/20 A3000 RMK AO1 T03150196
KOSA 242215Z AUTO 13005KT 10SM CLR 32/20 A3000 RMK AO1 T03170197
KOSA 242155Z AUTO 13003KT 10SM CLR 31/20 A3001 RMK AO1 T03120197
KOSA 242135Z AUTO 00000KT 10SM CLR 30/20 A3002 RMK AO1 T03000204
KOSA 242115Z AUTO 12005KT 10SM CLR 32/20 A3002 RMK AO1 T03150201
KOSA 242055Z AUTO 14004KT 10SM CLR 32/20 A3003 RMK AO1 T03150196
KOSA 242035Z AUTO 16005KT 10SM CLR 32/20 A3004 RMK AO1 T03180198
KOSA 242015Z AUTO 11005KT 10SM CLR 32/20 A3005 RMK AO1 T03180195
KOSA 241955Z AUTO 10006KT 10SM CLR 32/20 A3005 RMK AO1 T03180203
KOSA 241935Z AUTO 12004KT 10SM CLR 32/20 A3006 RMK AO1 T03170201
KOSA 241915Z AUTO 13005KT 10SM CLR 31/20 A3006 RMK AO1 T03120200
KOSA 241855Z AUTO 08004KT 10SM SCT042 31/20 A3007 RMK AO1 T03120203
KOSA 241835Z AUTO 13003KT 10SM SCT042 31/20 A3008 RMK AO1 T03090202
KOSA 241815Z AUTO 24004KT 10SM CLR 30/20 A3009 RMK AO1 T03010201
KOSA 241755Z AUTO 14003KT 10SM CLR 30/20 A3010 RMK AO1 T02970204 10307 20194
KOSA 241735Z AUTO 14003KT 10SM CLR 30/20 A3011 RMK AO1 T03000199
KOSA 241715Z AUTO 00000KT 10SM CLR 30/20 A3011 RMK AO1 T03000196
KOSA 241655Z AUTO 00000KT 10SM CLR 29/19 A3011 RMK AO1 T02900191
KOSA 241635Z AUTO 26003KT 7SM CLR 29/19 A3012 RMK AO1 T02860191
KOSA 241615Z AUTO 00000KT 10SM CLR 29/20 A3012 RMK AO1 T02870202
KOSA 241555Z AUTO 13003KT 10SM CLR 28/20 A3012 RMK AO1 T02750197
KOSA 241535Z AUTO 00000KT 10SM CLR 28/20 A3012 RMK AO1 T02760197
KOSA 241515Z AUTO 14003KT 10SM CLR 26/19 A3012 RMK AO1 T02640194
KOSA 241455Z AUTO 00000KT 10SM CLR 26/20 A3012 RMK AO1 T02600195
KOSA 241435Z AUTO 00000KT 10SM CLR 26/20 A3012 RMK AO1 T02570201
KOSA 241355Z AUTO 00000KT 10SM CLR 24/21 A3012 RMK AO1 T02360205
KOSA 241335Z AUTO 00000KT 10SM CLR 23/20 A3013 RMK AO1 T02280204
KOSA 241315Z AUTO 00000KT 10SM CLR 22/20 A3012 RMK AO1 T02200201
KOSA 241255Z AUTO 00000KT 10SM CLR 21/20 A3012 RMK AO1 T02110199
KOSA 241235Z AUTO 00000KT 7SM CLR 21/20 A3012 RMK AO1 T02060199
KOSA 241215Z AUTO 00000KT 5SM CLR 20/20 A3011 RMK AO1 T02000197
KOSA 241155Z AUTO 00000KT 4SM CLR 19/19 A3011 RMK AO1 T01920191 10215 20183
KOSA 241135Z AUTO 00000KT 4SM CLR 19/19 A3010 RMK AO1 T01920191
KOSA 241115Z AUTO 14003KT 5SM CLR 19/19 A3010 RMK AO1 T01900190
KOSA 241055Z AUTO 14003KT 5SM CLR 19/19 A3010 RMK AO1 T01900190
KOSA 241035Z AUTO 14004KT 1/2SM VV005 18/18 A3010 RMK AO1 T01830182
KOSA 241015Z AUTO 00000KT 7SM CLR 20/20 A3009 RMK AO1 T02000197
KOSA 240955Z AUTO 00000KT 7SM CLR 20/20 A3009 RMK AO1 T01980196
KOSA 240935Z AUTO 00000KT 4SM CLR 19/19 A3009 RMK AO1 T01940193
KOSA 240915Z AUTO 00000KT 10SM CLR 20/20 A3007 RMK AO1 T02020195
KOSA 240855Z AUTO 20003KT 10SM CLR 20/20 A3007 RMK AO1 T02010195
KOSA 240835Z AUTO 17003KT 10SM CLR 20/20 A3007 RMK AO1 T02020196
KOSA 240815Z AUTO 16003KT 10SM CLR 20/20 A3007 RMK AO1 T02000195
KOSA 240755Z AUTO 00000KT 10SM CLR 21/20 A3007 RMK AO1 T02050196
KOSA 240735Z AUTO 18003KT 10SM CLR 21/20 A3007 RMK AO1 T02090196
KOSA 240715Z AUTO 00000KT 10SM CLR 21/20 A3008 RMK AO1 T02070195
KOSA 240655Z AUTO 20003KT 10SM CLR 21/20 A3009 RMK AO1 T02080195
KOSA 240635Z AUTO 12003KT 10SM CLR 21/20 A3009 RMK AO1 T02110196
KOSA 240615Z AUTO 10005KT 10SM CLR 21/20 A3008 RMK AO1 T02130196
KOSA 240555Z AUTO 14004KT 10SM CLR 22/20 A3008 RMK AO1 T02150197 10264 20215 403210186
KOSA 240535Z AUTO 12004KT 10SM CLR 22/20 A3010 RMK AO1 T02220200
KOSA 240515Z AUTO 10004KT 10SM CLR 23/20 A3010 RMK AO1 T02280200
KOSA 240455Z AUTO 08007KT 10SM CLR 23/20 A3010 RMK AO1 T02310198
KOSA 240435Z AUTO 09007KT 10SM CLR 23/20 A3011 RMK AO1 T02310197
KOSA 240415Z AUTO 07007G15KT 10SM CLR 23/20 A3011 RMK AO1 T02310196
KOSA 240355Z AUTO 07009KT 10SM CLR 23/20 A3010 RMK AO1 T02320200
KOSA 240335Z AUTO 05007KT 10SM SCT021 SCT060 23/21 A3010 RMK AO1 T02310208
KOSA 240315Z AUTO 00000KT 10SM CLR 23/21 A3008 RMK AO1 T02300212
KOSA 240255Z AUTO 09003KT 10SM CLR 23/21 A3006 RMK AO1 T02320211
KOSA 240235Z AUTO 05004KT 10SM CLR 23/21 A3005 RMK AO1 T02320212
KOSA 240215Z AUTO 00000KT 10SM CLR 24/21 A3004 RMK AO1 T02400213
KOSA 240155Z AUTO 08003KT 10SM CLR 24/22 A3005 RMK AO1 T02440215
KOSA 240135Z AUTO 11003KT 10SM CLR 25/22 A3003 RMK AO1 T02450215
KOSA 240115Z AUTO 00000KT 10SM CLR 25/22 A3003 RMK AO1 T02500220
KOSA 240055Z AUTO 09003KT 10SM CLR 26/22 A3003 RMK AO1 T02570215
KOSA 240035Z AUTO 00000KT 10SM CLR 26/23 A3003 RMK AO1 T02620231
KOSA 240015Z AUTO 00000KT 10SM CLR 26/23 A3002 RMK AO1 T02630225
KOSA 232355Z AUTO 00000KT 10SM CLR 26/24 A3002 RMK AO1 T02630240 10321 20262
KOSA 232335Z AUTO 00000KT 10SM CLR 27/24 A3002 RMK AO1 T02650235
KOSA 232315Z AUTO 00000KT 10SM CLR 27/24 A3002 RMK AO1 T02680237
KOSA 232255Z AUTO 00000KT 10SM CLR 27/23 A3002 RMK AO1 T02680229
KOSA 232235Z AUTO 00000KT 10SM CLR 27/23 A3003 RMK AO1 T02680227
KOSA 232215Z AUTO 00000KT 10SM CLR 27/22 A3003 RMK AO1 T02690221
KOSA 232155Z AUTO 23007KT 10SM CLR 27/22 A3003 RMK AO1 T02720222
KOSA 232135Z AUTO 00000KT 10SM CLR 28/23 A3001 RMK AO1 T02800229
KOSA 232115Z AUTO 06004KT 10SM CLR 28/23 A3002 RMK AO1 T02800228
KOSA 232055Z AUTO 36004KT 10SM CLR 28/22 A3003 RMK AO1 T02820224
KOSA 232035Z AUTO 03004KT 10SM CLR 29/22 A3003 RMK AO1 T02850220
KOSA 232015Z AUTO 05007KT 10SM SCT044 30/22 A3003 RMK AO1 T02990215
KOSA 231955Z AUTO 05006KT 10SM CLR 31/22 A3004 RMK AO1 T03100216
KOSA 231935Z AUTO 05005KT 10SM SCT060 31/21 A3004 RMK AO1 T03100210
KOSA 231915Z AUTO 00000KT 10SM CLR 32/21 A3004 RMK AO1 T03180208
KOSA 231855Z AUTO 03003KT 10SM CLR 32/21 A3005 RMK AO1 T03210212
KOSA 231835Z AUTO 01005KT 10SM CLR 32/22 A3006 RMK AO1 T03160216
KOSA 231815Z AUTO 00000KT 10SM CLR 30/21 A3007 RMK AO1 T03040212
KOSA 231755Z AUTO 00000KT 10SM CLR 30/21 A3008 RMK AO1 T02950208 10309 20190
KOSA 231735Z AUTO 10005KT 10SM CLR 31/21 A3008 RMK AO1 T03070210
KOSA 231715Z AUTO 00000KT 10SM CLR 30/21 A3010 RMK AO1 T03000208